sensor_id;sensor_type;location;lat;lon;timestamp;pressure;altitude;pressure_sealevel;temperature;humidity
9325;BME280;4701;51.566;6.776;2023-03-14T06:15:34;98545.88;;;24.64;57.56
9325;BME280;4701;51.566;6.776;2023-03-14T06:17:38;98545.88;;;24.64;56.95
9325;BME280;4701;51.566;6.776;2023-03-14T06:19:44;98545.88;;;24.64;56.47
9325;BME280;4701;51.566;6.776;2023-03-14T06:21:47;98548.59;;;24.68;57.14
9325;BME280;4701;51.566;6.776;2023-03-14T06:23:49;98551.38;;;24.71;60.08
9325;BME280;4701;51.566;6.776;2023-03-14T06:25:52;98545.38;;;24.73;59.35
9325;BME280;4701;51.566;6.776;2023-03-14T06:27:56;98551.34;;;24.75;58.08
9325;BME280;4701;51.566;6.776;2023-03-14T06:29:58;98551.69;;;24.77;57.01
9325;BME280;4701;51.566;6.776;2023-03-14T06:32:02;98550.50;;;24.78;56.22
9325;BME280;4701;51.566;6.776;2023-03-14T06:34:05;98549.28;;;24.79;55.22
9325;BME280;4701;51.566;6.776;2023-03-14T06:36:08;98552.88;;;24.79;53.31
9325;BME280;4701;51.566;6.776;2023-03-14T06:38:11;98552.47;;;24.81;53.08
9325;BME280;4701;51.566;6.776;2023-03-14T06:40:13;98549.66;;;24.81;52.33
9325;BME280;4701;51.566;6.776;2023-03-14T06:42:38;98544.47;;;24.83;51.66
9325;BME280;4701;51.566;6.776;2023-03-14T06:44:40;98548.81;;;24.84;51.03
9325;BME280;4701;51.566;6.776;2023-03-14T06:46:42;98540.84;;;24.86;50.59
9325;BME280;4701;51.566;6.776;2023-03-14T06:48:45;98544.41;;;24.86;49.86
9325;BME280;4701;51.566;6.776;2023-03-14T06:50:48;98547.59;;;24.88;49.56
9325;BME280;4701;51.566;6.776;2023-03-14T06:52:50;98545.19;;;24.91;49.15
9325;BME280;4701;51.566;6.776;2023-03-14T06:54:56;98542.78;;;24.93;48.78
9325;BME280;4701;51.566;6.776;2023-03-14T06:56:58;98554.72;;;24.93;48.67
9325;BME280;4701;51.566;6.776;2023-03-14T06:59:00;98546.34;;;24.97;48.59
9325;BME280;4701;51.566;6.776;2023-03-14T07:01:05;98545.50;;;25.00;49.34
9325;BME280;4701;51.566;6.776;2023-03-14T07:03:14;98542.72;;;25.00;49.01
9325;BME280;4701;51.566;6.776;2023-03-14T07:05:21;98545.50;;;25.00;49.11
9325;BME280;4701;51.566;6.776;2023-03-14T07:07:23;98555.06;;;24.99;49.10
9325;BME280;4701;51.566;6.776;2023-03-14T07:09:24;98560.25;;;25.00;48.38
9325;BME280;4701;51.566;6.776;2023-03-14T07:11:31;98553.09;;;24.99;47.65
9325;BME280;4701;51.566;6.776;2023-03-14T07:13:33;98559.00;;;25.01;47.38
9325;BME280;4701;51.566;6.776;2023-03-14T07:15:41;98566.16;;;25.02;47.21
9325;BME280;4701;51.566;6.776;2023-03-14T07:17:44;98560.59;;;25.02;46.94
9325;BME280;4701;51.566;6.776;2023-03-14T07:19:48;98563.75;;;25.04;46.71
9325;BME280;4701;51.566;6.776;2023-03-14T07:21:51;98561.34;;;25.06;46.39
9325;BME280;4701;51.566;6.776;2023-03-14T07:23:57;98566.53;;;25.08;46.11
9325;BME280;4701;51.566;6.776;2023-03-14T07:25:59;98565.31;;;25.09;46.15
9325;BME280;4701;51.566;6.776;2023-03-14T07:28:02;98573.63;;;25.12;46.00
9325;BME280;4701;51.566;6.776;2023-03-14T07:30:05;98572.41;;;25.13;45.48
9325;BME280;4701;51.566;6.776;2023-03-14T07:32:07;98564.03;;;25.17;45.55
9325;BME280;4701;51.566;6.776;2023-03-14T07:34:10;98562.78;;;25.18;45.93
9325;BME280;4701;51.566;6.776;2023-03-14T07:36:15;98570.75;;;25.19;46.54
9325;BME280;4701;51.566;6.776;2023-03-14T07:38:20;98569.13;;;25.22;46.62
9325;BME280;4701;51.566;6.776;2023-03-14T07:40:40;98567.13;;;25.22;45.70
9325;BME280;4701;51.566;6.776;2023-03-14T07:42:42;98566.72;;;25.24;45.47
9325;BME280;4701;51.566;6.776;2023-03-14T07:44:58;98569.88;;;25.26;45.13
9325;BME280;4701;51.566;6.776;2023-03-14T07:47:00;98563.06;;;25.27;45.03
9325;BME280;4701;51.566;6.776;2023-03-14T07:49:02;98575.81;;;25.28;44.94
9325;BME280;4701;51.566;6.776;2023-03-14T07:51:04;98575.00;;;25.31;44.79
9325;BME280;4701;51.566;6.776;2023-03-14T07:53:06;98576.56;;;25.32;44.70
9325;BME280;4701;51.566;6.776;2023-03-14T07:55:10;98580.16;;;25.33;44.66
9325;BME280;4701;51.566;6.776;2023-03-14T07:57:13;98589.66;;;25.35;44.55
9325;BME280;4701;51.566;6.776;2023-03-14T07:59:15;98589.25;;;25.37;44.52
9325;BME280;4701;51.566;6.776;2023-03-14T08:01:17;98594.41;;;25.38;44.44
9325;BME280;4701;51.566;6.776;2023-03-14T08:03:19;98595.22;;;25.39;44.34
9325;BME280;4701;51.566;6.776;2023-03-14T08:05:21;98584.44;;;25.41;44.37
9325;BME280;4701;51.566;6.776;2023-03-14T08:07:23;98588.81;;;25.42;44.22
9325;BME280;4701;51.566;6.776;2023-03-14T08:09:25;98585.59;;;25.43;44.20
9325;BME280;4701;51.566;6.776;2023-03-14T08:11:28;98597.09;;;25.45;44.65
9325;BME280;4701;51.566;6.776;2023-03-14T08:13:30;98597.50;;;25.47;45.11
9325;BME280;4701;51.566;6.776;2023-03-14T08:15:32;98597.50;;;25.47;45.28
9325;BME280;4701;51.566;6.776;2023-03-14T08:17:34;98598.28;;;25.48;45.33
9325;BME280;4701;51.566;6.776;2023-03-14T08:19:36;98600.66;;;25.49;45.66
9325;BME280;4701;51.566;6.776;2023-03-14T08:21:38;98596.66;;;25.50;46.98
9325;BME280;4701;51.566;6.776;2023-03-14T08:23:40;98590.28;;;25.50;49.13
9325;BME280;4701;51.566;6.776;2023-03-14T08:25:42;98594.22;;;25.52;52.55
9325;BME280;4701;51.566;6.776;2023-03-14T08:27:46;98593.78;;;25.57;58.49
9325;BME280;4701;51.566;6.776;2023-03-14T08:29:48;98609.28;;;25.62;64.12
9325;BME280;4701;51.566;6.776;2023-03-14T08:31:50;98602.81;;;25.69;70.65
9325;BME280;4701;51.566;6.776;2023-03-14T08:33:52;98602.09;;;25.61;63.92
9325;BME280;4701;51.566;6.776;2023-03-14T08:35:54;98600.59;;;25.53;53.70
9325;BME280;4701;51.566;6.776;2023-03-14T08:37:56;98604.56;;;25.55;49.95
9325;BME280;4701;51.566;6.776;2023-03-14T08:39:58;98611.72;;;25.60;48.84
9325;BME280;4701;51.566;6.776;2023-03-14T08:42:00;98604.47;;;25.62;48.52
9325;BME280;4701;51.566;6.776;2023-03-14T08:44:03;98618.81;;;25.65;48.64
9325;BME280;4701;51.566;6.776;2023-03-14T08:46:05;98618.41;;;25.66;48.88
9325;BME280;4701;51.566;6.776;2023-03-14T08:48:07;98624.34;;;25.68;50.37
9325;BME280;4701;51.566;6.776;2023-03-14T08:50:10;98621.50;;;25.72;51.08
9325;BME280;4701;51.566;6.776;2023-03-14T08:52:12;98629.84;;;25.75;51.02
9325;BME280;4701;51.566;6.776;2023-03-14T08:54:16;98623.41;;;25.78;51.21
9325;BME280;4701;51.566;6.776;2023-03-14T08:56:19;98628.94;;;25.82;50.71
9325;BME280;4701;51.566;6.776;2023-03-14T08:58:21;98627.66;;;25.86;50.72
9325;BME280;4701;51.566;6.776;2023-03-14T09:00:25;98628.84;;;25.89;50.28
9325;BME280;4701;51.566;6.776;2023-03-14T09:02:27;98650.34;;;25.92;50.29
9325;BME280;4701;51.566;6.776;2023-03-14T09:04:29;98683.75;;;25.95;49.97
9325;BME280;4701;51.566;6.776;2023-03-14T09:06:31;98714.84;;;25.97;49.72
9325;BME280;4701;51.566;6.776;2023-03-14T09:08:32;98720.81;;;25.99;49.30
9325;BME280;4701;51.566;6.776;2023-03-14T09:10:35;98736.72;;;26.03;49.27
9325;BME280;4701;51.566;6.776;2023-03-14T09:12:37;98734.28;;;26.05;49.10
9325;BME280;4701;51.566;6.776;2023-03-14T09:14:38;98753.00;;;26.08;48.97
9325;BME280;4701;51.566;6.776;2023-03-14T09:16:42;98749.78;;;26.09;48.60
9325;BME280;4701;51.566;6.776;2023-03-14T09:18:44;98756.53;;;26.12;48.37
9325;BME280;4701;51.566;6.776;2023-03-14T09:20:46;98761.69;;;26.13;47.97
9325;BME280;4701;51.566;6.776;2023-03-14T09:22:48;98766.88;;;26.15;47.89
9325;BME280;4701;51.566;6.776;2023-03-14T09:24:50;98771.63;;;26.18;47.67
9325;BME280;4701;51.566;6.776;2023-03-14T09:26:52;98778.00;;;26.18;47.43
9325;BME280;4701;51.566;6.776;2023-03-14T09:28:54;98789.50;;;26.20;47.15
9325;BME280;4701;51.566;6.776;2023-03-14T09:30:56;98797.47;;;26.22;46.96
9325;BME280;4701;51.566;6.776;2023-03-14T09:32:59;98811.03;;;26.23;46.71
9325;BME280;4701;51.566;6.776;2023-03-14T09:35:01;98815.03;;;26.26;46.22
9325;BME280;4701;51.566;6.776;2023-03-14T09:37:03;98822.19;;;26.27;46.32
9325;BME280;4701;51.566;6.776;2023-03-14T09:39:05;98833.72;;;26.29;46.11
9325;BME280;4701;51.566;6.776;2023-03-14T09:41:16;98843.69;;;26.30;46.10
9325;BME280;4701;51.566;6.776;2023-03-14T09:43:22;98846.84;;;26.32;45.75
9325;BME280;4701;51.566;6.776;2023-03-14T09:45:27;98868.00;;;26.33;45.45
9325;BME280;4701;51.566;6.776;2023-03-14T09:47:30;98871.16;;;26.35;45.37
9325;BME280;4701;51.566;6.776;2023-03-14T09:49:36;98875.53;;;26.36;45.39
9325;BME280;4701;51.566;6.776;2023-03-14T09:51:42;98886.28;;;26.37;45.23
9325;BME280;4701;51.566;6.776;2023-03-14T09:53:52;98895.84;;;26.40;45.04
9325;BME280;4701;51.566;6.776;2023-03-14T09:55:57;98909.38;;;26.42;44.82
9325;BME280;4701;51.566;6.776;2023-03-14T09:58:02;98911.75;;;26.43;44.67
9325;BME280;4701;51.566;6.776;2023-03-14T10:00:14;98924.94;;;26.43;44.91
9325;BME280;4701;51.566;6.776;2023-03-14T10:02:19;98930.13;;;26.44;44.66
9325;BME280;4701;51.566;6.776;2023-03-14T10:04:22;98924.09;;;26.46;44.57
9325;BME280;4701;51.566;6.776;2023-03-14T10:06:27;98935.63;;;26.48;45.06
9325;BME280;4701;51.566;6.776;2023-03-14T10:08:30;98946.41;;;26.49;45.97
9325;BME280;4701;51.566;6.776;2023-03-14T10:10:32;98959.16;;;26.50;46.54
9325;BME280;4701;51.566;6.776;2023-03-14T10:12:36;98976.72;;;26.51;46.10
9325;BME280;4701;51.566;6.776;2023-03-14T10:14:45;98990.31;;;26.49;46.41
9325;BME280;4701;51.566;6.776;2023-03-14T10:16:48;99003.88;;;26.50;46.13
9325;BME280;4701;51.566;6.776;2023-03-14T10:18:52;99013.44;;;26.49;46.29
9325;BME280;4701;51.566;6.776;2023-03-14T10:21:03;99023.03;;;26.48;45.98
9325;BME280;4701;51.566;6.776;2023-03-14T10:23:22;99042.19;;;26.50;45.76
9325;BME280;4701;51.566;6.776;2023-03-14T10:25:28;99048.56;;;26.50;45.85
9325;BME280;4701;51.566;6.776;2023-03-14T10:27:32;99058.16;;;26.49;45.90
9325;BME280;4701;51.566;6.776;2023-03-14T10:29:34;99072.91;;;26.50;45.51
9325;BME280;4701;51.566;6.776;2023-03-14T10:31:54;99090.06;;;26.52;45.49
9325;BME280;4701;51.566;6.776;2023-03-14T10:34:00;99102.03;;;26.52;45.40
9325;BME280;4701;51.566;6.776;2023-03-14T10:36:06;99114.00;;;26.53;45.40
9325;BME280;4701;51.566;6.776;2023-03-14T10:38:18;99123.19;;;26.53;45.35
9325;BME280;4701;51.566;6.776;2023-03-14T10:40:24;99135.91;;;26.54;45.26
9325;BME280;4701;51.566;6.776;2023-03-14T10:42:29;99138.31;;;26.56;45.36
9325;BME280;4701;51.566;6.776;2023-03-14T10:44:33;99151.06;;;26.57;45.28
9325;BME280;4701;51.566;6.776;2023-03-14T11:04:06;99242.84;;;26.62;45.00
9325;BME280;4701;51.566;6.776;2023-03-14T11:13:23;99267.97;;;26.65;45.17
9325;BME280;4701;51.566;6.776;2023-03-14T11:15:30;99272.75;;;26.65;45.34
9325;BME280;4701;51.566;6.776;2023-03-14T11:17:38;99279.94;;;26.66;44.92
9325;BME280;4701;51.566;6.776;2023-03-14T11:19:54;99293.50;;;26.67;45.11
9325;BME280;4701;51.566;6.776;2023-03-14T11:22:13;99306.69;;;26.67;44.84
9325;BME280;4701;51.566;6.776;2023-03-14T11:24:33;99324.66;;;26.66;45.24
9325;BME280;4701;51.566;6.776;2023-03-14T11:26:43;99329.44;;;26.69;44.99
9325;BME280;4701;51.566;6.776;2023-03-14T11:28:54;99341.41;;;26.69;44.89
9325;BME280;4701;51.566;6.776;2023-03-14T11:31:02;99343.00;;;26.70;45.09
9325;BME280;4701;51.566;6.776;2023-03-14T11:33:11;99341.00;;;26.71;44.88
9325;BME280;4701;51.566;6.776;2023-03-14T11:35:24;99363.72;;;26.73;44.98
9325;BME280;4701;51.566;6.776;2023-03-14T11:37:33;99370.13;;;26.73;45.17
9325;BME280;4701;51.566;6.776;2023-03-14T11:39:39;99382.91;;;26.74;44.99
9325;BME280;4701;51.566;6.776;2023-03-14T11:41:44;99380.09;;;26.74;44.68
9325;BME280;4701;51.566;6.776;2023-03-14T11:43:48;99388.88;;;26.77;44.69
9325;BME280;4701;51.566;6.776;2023-03-14T11:45:51;99400.06;;;26.77;44.28
9325;BME280;4701;51.566;6.776;2023-03-14T11:48:01;99402.84;;;26.77;44.54
9325;BME280;4701;51.566;6.776;2023-03-14T11:50:12;99410.84;;;26.78;44.15
9325;BME280;4701;51.566;6.776;2023-03-14T11:52:21;99416.44;;;26.78;44.33
9325;BME280;4701;51.566;6.776;2023-03-14T11:54:33;99406.03;;;26.79;44.18
9325;BME280;4701;51.566;6.776;2023-03-14T11:56:39;99427.97;;;26.80;44.18
9325;BME280;4701;51.566;6.776;2023-03-14T11:58:51;99427.56;;;26.82;44.01
9325;BME280;4701;51.566;6.776;2023-03-14T12:00:56;99433.16;;;26.82;44.31
9325;BME280;4701;51.566;6.776;2023-03-14T12:03:02;99423.56;;;26.83;43.80
9325;BME280;4701;51.566;6.776;2023-03-14T12:05:43;99439.94;;;26.84;43.69
9325;BME280;4701;51.566;6.776;2023-03-14T12:08:13;99441.13;;;26.87;43.46
9325;BME280;4701;51.566;6.776;2023-03-14T12:10:19;99447.53;;;26.87;43.86
9325;BME280;4701;51.566;6.776;2023-03-14T12:12:22;99458.72;;;26.87;43.50
9325;BME280;4701;51.566;6.776;2023-03-14T12:14:27;99468.25;;;26.90;43.83
9325;BME280;4701;51.566;6.776;2023-03-14T12:16:33;99467.47;;;26.89;43.88
9325;BME280;4701;51.566;6.776;2023-03-14T12:18:37;99480.66;;;26.89;43.49
9325;BME280;4701;51.566;6.776;2023-03-14T12:20:40;99486.66;;;26.91;43.59
9325;BME280;4701;51.566;6.776;2023-03-14T12:22:43;99496.25;;;26.93;43.67
9325;BME280;4701;51.566;6.776;2023-03-14T12:24:50;99511.03;;;26.94;44.01
9325;BME280;4701;51.566;6.776;2023-03-14T12:26:55;99520.22;;;26.94;43.87
9325;BME280;4701;51.566;6.776;2023-03-14T12:29:11;99538.59;;;26.95;43.81
9325;BME280;4701;51.566;6.776;2023-03-14T12:31:40;99546.53;;;26.97;43.17
9325;BME280;4701;51.566;6.776;2023-03-14T12:33:43;99546.13;;;26.98;43.15
9325;BME280;4701;51.566;6.776;2023-03-14T12:35:47;99551.34;;;27.00;43.08
9325;BME280;4701;51.566;6.776;2023-03-14T12:37:51;99554.94;;;27.00;42.99
9325;BME280;4701;51.566;6.776;2023-03-14T12:40:04;99560.91;;;27.02;42.64
9325;BME280;4701;51.566;6.776;2023-03-14T12:42:16;99576.50;;;27.03;42.90
9325;BME280;4701;51.566;6.776;2023-03-14T12:44:49;99580.47;;;27.06;42.87
9325;BME280;4701;51.566;6.776;2023-03-14T12:46:51;99575.66;;;27.06;42.76
9325;BME280;4701;51.566;6.776;2023-03-14T12:49:04;99583.66;;;27.08;42.57
9325;BME280;4701;51.566;6.776;2023-03-14T12:51:13;99588.84;;;27.09;42.48
9325;BME280;4701;51.566;6.776;2023-03-14T12:53:49;99598.84;;;27.10;42.68
9325;BME280;4701;51.566;6.776;2023-03-14T12:56:02;99606.81;;;27.12;42.97
9325;BME280;4701;51.566;6.776;2023-03-14T12:58:12;99616.81;;;27.13;42.41
9325;BME280;4701;51.566;6.776;2023-03-14T13:00:20;99637.97;;;27.14;42.67
9325;BME280;4701;51.566;6.776;2023-03-14T13:02:25;99650.38;;;27.13;42.20
9325;BME280;4701;51.566;6.776;2023-03-14T13:04:31;99648.75;;;27.16;42.26
9325;BME280;4701;51.566;6.776;2023-03-14T13:06:50;99653.94;;;27.17;42.24
9325;BME280;4701;51.566;6.776;2023-03-14T13:08:54;99657.16;;;27.19;42.41
9325;BME280;4701;51.566;6.776;2023-03-14T13:10:58;99658.75;;;27.20;42.64
9325;BME280;4701;51.566;6.776;2023-03-14T13:13:03;99663.13;;;27.21;42.72
9325;BME280;4701;51.566;6.776;2023-03-14T13:15:19;99670.31;;;27.22;42.62
9325;BME280;4701;51.566;6.776;2023-03-14T13:17:26;99672.69;;;27.24;42.40
9325;BME280;4701;51.566;6.776;2023-03-14T13:19:30;99680.69;;;27.25;42.44
9325;BME280;4701;51.566;6.776;2023-03-14T13:21:35;99686.28;;;27.25;42.26
9325;BME280;4701;51.566;6.776;2023-03-14T13:23:38;99685.88;;;27.27;42.31
9325;BME280;4701;51.566;6.776;2023-03-14T13:25:40;99691.09;;;27.28;42.60
9325;BME280;4701;51.566;6.776;2023-03-14T13:27:43;99700.28;;;27.29;42.26
9325;BME280;4701;51.566;6.776;2023-03-14T13:29:45;99696.28;;;27.30;42.29
9325;BME280;4701;51.566;6.776;2023-03-14T13:31:49;99698.66;;;27.31;42.37
9325;BME280;4701;51.566;6.776;2023-03-14T13:33:58;99701.03;;;27.33;42.43
9325;BME280;4701;51.566;6.776;2023-03-14T13:36:02;99712.63;;;27.35;42.05
9325;BME280;4701;51.566;6.776;2023-03-14T13:38:04;99707.84;;;27.35;41.98
9325;BME280;4701;51.566;6.776;2023-03-14T13:40:19;99712.25;;;27.36;42.13
9325;BME280;4701;51.566;6.776;2023-03-14T13:42:25;99719.44;;;27.37;42.16
9325;BME280;4701;51.566;6.776;2023-03-14T13:44:30;99718.22;;;27.38;42.25
9325;BME280;4701;51.566;6.776;2023-03-14T13:46:34;99722.59;;;27.39;42.28
9325;BME280;4701;51.566;6.776;2023-03-14T13:48:45;99732.19;;;27.42;42.25
9325;BME280;4701;51.566;6.776;2023-03-14T13:50:52;99734.19;;;27.41;42.10
9325;BME280;4701;51.566;6.776;2023-03-14T13:52:55;99741.00;;;27.44;42.25
9325;BME280;4701;51.566;6.776;2023-03-14T13:55:00;99741.00;;;27.44;42.21
9325;BME280;4701;51.566;6.776;2023-03-14T13:57:05;99752.97;;;27.44;41.88
9325;BME280;4701;51.566;6.776;2023-03-14T13:59:21;99770.97;;;27.47;42.02
9325;BME280;4701;51.566;6.776;2023-03-14T14:01:26;99776.16;;;27.48;41.79
9325;BME280;4701;51.566;6.776;2023-03-14T14:03:31;99764.94;;;27.48;41.93
9325;BME280;4701;51.566;6.776;2023-03-14T14:05:34;99772.16;;;27.49;41.85
9325;BME280;4701;51.566;6.776;2023-03-14T14:07:38;99780.94;;;27.52;41.71
9325;BME280;4701;51.566;6.776;2023-03-14T14:09:42;99793.38;;;27.54;42.02
9325;BME280;4701;51.566;6.776;2023-03-14T14:11:48;99796.97;;;27.55;41.82
9325;BME280;4701;51.566;6.776;2023-03-14T14:13:54;99796.97;;;27.55;41.68
9325;BME280;4701;51.566;6.776;2023-03-14T14:16:00;99811.34;;;27.57;41.72
9325;BME280;4701;51.566;6.776;2023-03-14T14:18:06;99802.53;;;27.58;41.67
9325;BME280;4701;51.566;6.776;2023-03-14T14:20:14;99815.34;;;27.59;42.11
9325;BME280;4701;51.566;6.776;2023-03-14T14:22:19;99810.53;;;27.60;42.67
9325;BME280;4701;51.566;6.776;2023-03-14T14:24:23;99813.34;;;27.60;42.67
9325;BME280;4701;51.566;6.776;2023-03-14T14:26:26;99823.75;;;27.63;42.99
9325;BME280;4701;51.566;6.776;2023-03-14T14:28:30;99829.72;;;27.65;43.60
9325;BME280;4701;51.566;6.776;2023-03-14T14:30:35;99837.72;;;27.66;44.38
9325;BME280;4701;51.566;6.776;2023-03-14T14:32:39;99829.72;;;27.68;44.18
9325;BME280;4701;51.566;6.776;2023-03-14T14:34:44;99841.72;;;27.69;44.42
9325;BME280;4701;51.566;6.776;2023-03-14T14:36:49;99846.91;;;27.70;44.37
9325;BME280;4701;51.566;6.776;2023-03-14T14:38:53;99849.31;;;27.72;44.79
9325;BME280;4701;51.566;6.776;2023-03-14T14:40:59;99856.50;;;27.73;44.49
9325;BME280;4701;51.566;6.776;2023-03-14T14:43:04;99868.47;;;27.73;44.79
9325;BME280;4701;51.566;6.776;2023-03-14T14:45:12;99866.47;;;27.74;44.96
9325;BME280;4701;51.566;6.776;2023-03-14T14:47:15;99872.47;;;27.76;44.83
9325;BME280;4701;51.566;6.776;2023-03-14T14:49:19;99877.69;;;27.77;44.86
9325;BME280;4701;51.566;6.776;2023-03-14T14:51:32;99886.88;;;27.78;44.78
9325;BME280;4701;51.566;6.776;2023-03-14T14:53:37;99889.69;;;27.78;44.88
9325;BME280;4701;51.566;6.776;2023-03-14T14:55:40;99886.50;;;27.79;44.50
9325;BME280;4701;51.566;6.776;2023-03-14T14:57:49;99896.50;;;27.80;44.51
9325;BME280;4701;51.566;6.776;2023-03-14T14:59:54;99907.25;;;27.82;44.57
9325;BME280;4701;51.566;6.776;2023-03-14T15:01:57;99911.66;;;27.83;44.27
9325;BME280;4701;51.566;6.776;2023-03-14T15:04:00;99912.47;;;27.83;43.95
9325;BME280;4701;51.566;6.776;2023-03-14T15:06:03;99924.47;;;27.84;44.36
9325;BME280;4701;51.566;6.776;2023-03-14T15:08:09;99926.06;;;27.85;44.18
9325;BME280;4701;51.566;6.776;2023-03-14T15:10:13;99936.88;;;27.86;44.47
9325;BME280;4701;51.566;6.776;2023-03-14T15:12:16;99943.28;;;27.87;45.03
9325;BME280;4701;51.566;6.776;2023-03-14T15:14:21;99952.88;;;27.90;45.67
9325;BME280;4701;51.566;6.776;2023-03-14T15:16:28;99959.69;;;27.89;45.70
9325;BME280;4701;51.566;6.776;2023-03-14T15:18:40;99961.28;;;27.90;44.96
9325;BME280;4701;51.566;6.776;2023-03-14T15:20:45;99967.69;;;27.90;44.83
9325;BME280;4701;51.566;6.776;2023-03-14T15:22:47;99990.47;;;27.92;44.46
9325;BME280;4701;51.566;6.776;2023-03-14T15:24:51;99979.25;;;27.92;44.50
9325;BME280;4701;51.566;6.776;2023-03-14T15:26:53;99976.47;;;27.92;44.03
9325;BME280;4701;51.566;6.776;2023-03-14T15:29:04;99999.25;;;27.94;43.47
9325;BME280;4701;51.566;6.776;2023-03-14T15:31:16;99998.88;;;27.96;43.28
9325;BME280;4701;51.566;6.776;2023-03-14T15:33:19;99992.06;;;27.97;42.88
9325;BME280;4701;51.566;6.776;2023-03-14T15:35:21;100002.47;;;27.96;42.99
9325;BME280;4701;51.566;6.776;2023-03-14T15:37:25;99999.66;;;28.00;42.76
9325;BME280;4701;51.566;6.776;2023-03-14T15:39:27;100010.47;;;28.01;42.64
9325;BME280;4701;51.566;6.776;2023-03-14T15:41:33;100011.25;;;28.02;42.82
9325;BME280;4701;51.566;6.776;2023-03-14T15:43:35;100017.66;;;28.02;42.37
9325;BME280;4701;51.566;6.776;2023-03-14T15:45:37;100026.47;;;28.04;42.62
9325;BME280;4701;51.566;6.776;2023-03-14T15:47:41;100026.06;;;28.06;42.35
9325;BME280;4701;51.566;6.776;2023-03-14T15:49:43;100038.09;;;28.06;42.54
9325;BME280;4701;51.566;6.776;2023-03-14T15:51:48;100042.47;;;28.07;42.24
9325;BME280;4701;51.566;6.776;2023-03-14T15:53:52;100049.66;;;28.08;42.19
9325;BME280;4701;51.566;6.776;2023-03-14T15:55:54;100036.84;;;28.11;42.53
9325;BME280;4701;51.566;6.776;2023-03-14T15:57:57;100059.28;;;28.11;42.06
9325;BME280;4701;51.566;6.776;2023-03-14T16:00:00;100068.47;;;28.11;42.13
9325;BME280;4701;51.566;6.776;2023-03-14T16:02:05;100073.69;;;28.13;42.13
9325;BME280;4701;51.566;6.776;2023-03-14T16:04:07;100078.09;;;28.14;42.02
9325;BME280;4701;51.566;6.776;2023-03-14T16:06:09;100085.69;;;28.13;42.42
9325;BME280;4701;51.566;6.776;2023-03-14T16:08:11;100088.91;;;28.15;42.19
9325;BME280;4701;51.566;6.776;2023-03-14T16:10:14;100092.50;;;28.16;41.94
9325;BME280;4701;51.566;6.776;2023-03-14T16:12:22;100094.91;;;28.17;42.14
9325;BME280;4701;51.566;6.776;2023-03-14T16:14:29;100101.31;;;28.18;41.92
9325;BME280;4701;51.566;6.776;2023-03-14T16:16:34;100105.72;;;28.19;41.78
9325;BME280;4701;51.566;6.776;2023-03-14T16:18:38;100119.34;;;28.20;41.38
9325;BME280;4701;51.566;6.776;2023-03-14T16:20:41;100124.53;;;28.22;42.22
9325;BME280;4701;51.566;6.776;2023-03-14T16:22:43;100124.53;;;28.22;42.16
9325;BME280;4701;51.566;6.776;2023-03-14T16:24:47;100129.75;;;28.23;42.54
9325;BME280;4701;51.566;6.776;2023-03-14T16:26:49;100133.34;;;28.24;44.25
9325;BME280;4701;51.566;6.776;2023-03-14T16:29:02;100139.75;;;28.28;50.11
9325;BME280;4701;51.566;6.776;2023-03-14T16:31:08;100139.31;;;28.33;55.58
9325;BME280;4701;51.566;6.776;2023-03-14T16:33:10;100144.56;;;28.38;62.42
9325;BME280;4701;51.566;6.776;2023-03-14T16:35:12;100158.53;;;28.42;66.84
9325;BME280;4701;51.566;6.776;2023-03-14T16:37:14;100159.78;;;28.41;66.50
9325;BME280;4701;51.566;6.776;2023-03-14T16:39:17;100166.56;;;28.40;65.02
9325;BME280;4701;51.566;6.776;2023-03-14T16:41:19;100179.00;;;28.39;63.18
9325;BME280;4701;51.566;6.776;2023-03-14T16:43:22;100190.19;;;28.39;61.79
9325;BME280;4701;51.566;6.776;2023-03-14T16:45:25;100197.00;;;28.38;59.97
9325;BME280;4701;51.566;6.776;2023-03-14T16:47:28;100199.81;;;28.38;60.21
9325;BME280;4701;51.566;6.776;2023-03-14T16:49:30;100207.41;;;28.37;59.43
9325;BME280;4701;51.566;6.776;2023-03-14T16:51:32;100215.00;;;28.37;59.35
9325;BME280;4701;51.566;6.776;2023-03-14T16:53:34;100224.63;;;28.39;63.60
9325;BME280;4701;51.566;6.776;2023-03-14T16:55:39;100229.03;;;28.40;66.31
9325;BME280;4701;51.566;6.776;2023-03-14T16:57:42;100229.03;;;28.37;65.93
9325;BME280;4701;51.566;6.776;2023-03-14T16:59:43;100227.41;;;28.36;63.68
9325;BME280;4701;51.566;6.776;2023-03-14T17:01:45;100241.81;;;28.34;61.69
9325;BME280;4701;51.566;6.776;2023-03-14T17:03:51;100240.22;;;28.33;60.34
9325;BME280;4701;51.566;6.776;2023-03-14T17:05:53;100245.06;;;28.33;58.88
9325;BME280;4701;51.566;6.776;2023-03-14T17:07:55;100251.44;;;28.33;57.63
9325;BME280;4701;51.566;6.776;2023-03-14T17:09:56;100264.25;;;28.34;56.46
9325;BME280;4701;51.566;6.776;2023-03-14T17:11:58;100252.22;;;28.34;55.64
9325;BME280;4701;51.566;6.776;2023-03-14T17:14:01;100267.06;;;28.34;54.94
9325;BME280;4701;51.566;6.776;2023-03-14T17:16:04;100279.88;;;28.35;54.17
9325;BME280;4701;51.566;6.776;2023-03-14T17:18:06;100275.06;;;28.36;53.50
9325;BME280;4701;51.566;6.776;2023-03-14T17:20:10;100278.66;;;28.36;53.49
9325;BME280;4701;51.566;6.776;2023-03-14T17:22:12;100276.66;;;28.37;52.73
9325;BME280;4701;51.566;6.776;2023-03-14T17:24:14;100287.88;;;28.37;52.73
9325;BME280;4701;51.566;6.776;2023-03-14T17:26:16;100289.50;;;28.38;51.97
9325;BME280;4701;51.566;6.776;2023-03-14T17:28:19;100298.31;;;28.40;51.43
9325;BME280;4701;51.566;6.776;2023-03-14T17:30:21;100306.28;;;28.41;51.33
9325;BME280;4701;51.566;6.776;2023-03-14T17:32:23;100312.31;;;28.43;50.79
9325;BME280;4701;51.566;6.776;2023-03-14T17:34:26;100314.31;;;28.43;50.71
9325;BME280;4701;51.566;6.776;2023-03-14T17:36:29;100315.13;;;28.43;50.15
9325;BME280;4701;51.566;6.776;2023-03-14T17:38:33;100319.53;;;28.44;49.65
9325;BME280;4701;51.566;6.776;2023-03-14T17:40:35;100329.53;;;28.45;49.82
9325;BME280;4701;51.566;6.776;2023-03-14T17:42:37;100328.34;;;28.46;49.35
9325;BME280;4701;51.566;6.776;2023-03-14T17:44:39;100343.16;;;28.47;49.58
9325;BME280;4701;51.566;6.776;2023-03-14T17:46:42;100346.78;;;28.47;49.22
9325;BME280;4701;51.566;6.776;2023-03-14T17:48:46;100350.38;;;28.48;48.66
9325;BME280;4701;51.566;6.776;2023-03-14T17:50:48;100361.19;;;28.49;48.52
9325;BME280;4701;51.566;6.776;2023-03-14T17:52:52;100366.81;;;28.49;48.53
9325;BME280;4701;51.566;6.776;2023-03-14T17:54:54;100379.59;;;28.50;47.95
9325;BME280;4701;51.566;6.776;2023-03-14T17:56:56;100389.22;;;28.53;47.98
9325;BME280;4701;51.566;6.776;2023-03-14T17:58:58;100388.81;;;28.51;47.96